createdAt,value
2018-07-12T00:02:12.378Z,61.10
2018-07-12T00:04:40.211Z,61.15
2018-07-12T00:07:08.071Z,61.53
2018-07-12T00:09:35.944Z,61.29
2018-07-12T00:12:03.787Z,61.39
2018-07-12T00:14:31.623Z,61.29
2018-07-12T00:16:59.412Z,61.44
2018-07-12T00:19:27.228Z,61.36
2018-07-12T00:21:55.092Z,61.34
2018-07-12T00:24:22.934Z,61.15
2018-07-12T00:26:51.001Z,61.04
2018-07-12T00:29:18.840Z,60.52
2018-07-12T00:31:46.643Z,60.88
2018-07-12T00:34:14.716Z,60.80
2018-07-12T00:36:42.726Z,60.90
2018-07-12T00:39:10.688Z,61.21
2018-07-12T00:41:38.605Z,61.33
2018-07-12T00:44:06.505Z,61.78
2018-07-12T00:46:34.312Z,61.73
2018-07-12T00:49:02.179Z,61.65
2018-07-12T00:51:30.055Z,61.74
2018-07-12T00:53:58.088Z,61.98
2018-07-12T00:56:25.995Z,62.11
2018-07-12T00:58:53.779Z,62.28
2018-07-12T01:01:21.669Z,61.92
2018-07-12T01:03:49.475Z,62.02
2018-07-12T01:06:17.286Z,61.98
2018-07-12T01:08:45.173Z,61.79
2018-07-12T01:11:13.179Z,61.65
2018-07-12T01:13:41.157Z,61.64
2018-07-12T01:16:09.218Z,61.61
2018-07-12T01:18:37.132Z,61.07
2018-07-12T01:21:04.944Z,61.51
2018-07-12T01:23:32.857Z,61.53
2018-07-12T01:26:00.641Z,61.73
2018-07-12T01:28:28.444Z,61.76
2018-07-12T01:30:56.295Z,62.47
2018-07-12T01:33:24.132Z,62.14
2018-07-12T01:35:51.961Z,62.02
2018-07-12T01:38:19.776Z,61.87
2018-07-12T01:40:47.642Z,61.87
2018-07-12T01:43:15.447Z,61.90
2018-07-12T01:45:43.232Z,61.66
2018-07-12T01:48:11.165Z,61.77
2018-07-12T01:50:38.994Z,62.13
2018-07-12T01:53:07.056Z,62.62
2018-07-12T01:55:34.943Z,62.21
2018-07-12T01:58:02.768Z,62.34
2018-07-12T02:00:30.629Z,62.29
2018-07-12T02:02:58.468Z,62.49
2018-07-12T02:05:26.333Z,62.71
2018-07-12T02:07:54.229Z,62.64
2018-07-12T02:10:22.378Z,62.90
2018-07-12T02:12:50.216Z,63.05
2018-07-12T02:15:18.171Z,62.64
2018-07-12T02:17:46.033Z,62.96
2018-07-12T02:20:13.824Z,62.96
2018-07-12T02:22:41.625Z,62.79
2018-07-12T02:25:09.420Z,62.80
2018-07-12T02:27:37.248Z,62.83
2018-07-12T02:30:05.135Z,62.19
2018-07-12T02:32:32.951Z,62.57
2018-07-12T02:35:00.773Z,62.67
2018-07-12T02:37:28.599Z,62.68
2018-07-12T02:39:56.434Z,62.91
2018-07-12T02:42:24.232Z,63.17
2018-07-12T02:44:52.393Z,63.34
2018-07-12T02:47:20.710Z,63.35
2018-07-12T02:49:48.543Z,63.83
2018-07-12T02:52:16.779Z,63.87
2018-07-12T02:54:44.591Z,63.88
2018-07-12T02:57:12.409Z,63.71
2018-07-12T02:59:40.206Z,64.29
2018-07-12T03:02:08.059Z,64.28
2018-07-12T03:04:35.938Z,64.33
2018-07-12T03:07:03.714Z,64.02
2018-07-12T03:09:31.549Z,64.36
2018-07-12T03:11:59.377Z,64.19
2018-07-12T03:14:27.203Z,64.56
2018-07-12T03:16:55.150Z,64.49
2018-07-12T03:19:22.950Z,64.18
2018-07-12T03:21:50.815Z,64.29
2018-07-12T03:24:18.591Z,64.17
2018-07-12T03:26:46.382Z,63.89
2018-07-12T03:29:15.226Z,64.01
2018-07-12T03:31:43.056Z,64.15
2018-07-12T03:34:10.884Z,64.36
2018-07-12T03:36:38.712Z,64.43
2018-07-12T03:39:06.519Z,64.37
2018-07-12T03:41:34.328Z,64.26
2018-07-12T03:44:02.136Z,64.17
2018-07-12T03:46:29.915Z,64.30
2018-07-12T03:48:57.812Z,64.52
2018-07-12T03:51:25.590Z,64.38
2018-07-12T03:53:53.489Z,64.68
2018-07-12T03:56:21.298Z,64.62
2018-07-12T03:58:49.137Z,64.58
2018-07-12T04:01:16.947Z,64.34
2018-07-12T04:03:44.788Z,64.39
2018-07-12T04:06:12.650Z,64.35
2018-07-12T04:08:40.467Z,64.16
2018-07-12T04:11:08.338Z,64.11
2018-07-12T04:13:36.187Z,63.92
2018-07-12T04:16:04.080Z,64.02
2018-07-12T04:18:31.888Z,64.12
2018-07-12T04:20:59.840Z,64.30
2018-07-12T04:23:27.645Z,63.86
2018-07-12T04:25:55.459Z,64.35
2018-07-12T04:28:23.289Z,64.12
2018-07-12T04:30:51.136Z,64.42
2018-07-12T04:33:18.977Z,64.21
2018-07-12T04:35:46.758Z,64.50
2018-07-12T04:38:14.592Z,64.47
2018-07-12T04:40:42.407Z,64.26
2018-07-12T04:43:10.211Z,64.22
2018-07-12T04:45:38.080Z,63.81
2018-07-12T04:48:05.843Z,63.90
2018-07-12T04:50:33.671Z,64.88
2018-07-12T04:53:01.475Z,64.57
2018-07-12T04:55:29.348Z,64.68
2018-07-12T04:57:57.168Z,64.73
2018-07-12T05:00:25.006Z,65.33
2018-07-12T05:02:52.858Z,65.46
2018-07-12T05:05:20.716Z,65.75
2018-07-12T05:07:48.572Z,66.65
2018-07-12T05:10:16.402Z,67.32
2018-07-12T05:12:44.212Z,67.69
2018-07-12T05:15:12.000Z,67.88
2018-07-12T05:17:39.867Z,68.22
2018-07-12T05:20:07.683Z,68.46
2018-07-12T05:22:35.508Z,68.70
2018-07-12T05:25:03.535Z,69.02
2018-07-12T05:27:31.371Z,69.50
2018-07-12T05:29:59.200Z,69.88
2018-07-12T05:32:27.027Z,70.07
2018-07-12T05:34:54.837Z,70.31
2018-07-12T05:37:24.279Z,70.75
2018-07-12T05:39:53.663Z,71.05
2018-07-12T05:42:23.029Z,71.04
2018-07-12T05:44:52.533Z,71.25
2018-07-12T05:47:21.948Z,71.25
2018-07-12T05:49:51.347Z,71.55
2018-07-12T05:52:20.764Z,71.58
2018-07-12T05:54:50.214Z,71.52
2018-07-12T05:57:19.607Z,71.49
2018-07-12T05:59:49.001Z,71.36
2018-07-12T06:02:21.301Z,71.52
2018-07-12T06:04:50.944Z,71.12
2018-07-12T06:07:25.533Z,71.49
2018-07-12T06:09:54.880Z,71.89
2018-07-12T06:12:24.788Z,71.51
2018-07-12T06:14:54.320Z,70.82
2018-07-12T06:17:24.353Z,71.16
2018-07-12T06:19:53.716Z,71.30
2018-07-12T06:22:23.086Z,71.44
2018-07-12T06:24:52.532Z,71.35
2018-07-12T06:27:21.983Z,71.43
2018-07-12T06:29:51.463Z,71.73
2018-07-12T06:32:20.799Z,71.66
2018-07-12T06:34:50.142Z,71.66
2018-07-12T06:37:19.557Z,71.51
2018-07-12T06:39:48.982Z,70.72
2018-07-12T06:42:19.341Z,70.99
2018-07-12T06:44:48.759Z,70.41
2018-07-12T06:47:18.709Z,69.71
2018-07-12T06:49:48.156Z,69.85
2018-07-12T06:52:17.674Z,69.69
2018-07-12T06:54:47.099Z,69.67
2018-07-12T06:57:16.488Z,69.26
2018-07-12T06:59:45.645Z,69.37
2018-07-12T07:02:15.042Z,70.06
2018-07-12T07:04:44.411Z,70.15
2018-07-12T07:07:14.227Z,69.90
2018-07-12T07:09:43.751Z,69.24
2018-07-12T07:12:13.183Z,69.16
2018-07-12T07:14:42.874Z,69.11
2018-07-12T07:17:12.493Z,69.47
2018-07-12T07:19:41.964Z,69.10
2018-07-12T07:22:11.375Z,69.21
2018-07-12T07:24:40.812Z,69.18
2018-07-12T07:27:10.187Z,69.44
2018-07-12T07:29:39.646Z,69.25
2018-07-12T07:32:08.812Z,69.21
2018-07-12T07:34:38.237Z,69.51
2018-07-12T07:37:07.681Z,69.34
2018-07-12T07:39:37.151Z,69.50
2018-07-12T07:42:06.609Z,69.41
2018-07-12T07:44:36.090Z,69.11
2018-07-12T07:47:05.531Z,68.64
2018-07-12T07:49:34.984Z,68.32
2018-07-12T07:52:04.373Z,68.26
2018-07-12T07:54:33.844Z,68.27
2018-07-12T07:57:03.264Z,68.36
2018-07-12T07:59:32.788Z,67.58
2018-07-12T08:02:02.184Z,67.43
2018-07-12T08:04:31.660Z,67.18
2018-07-12T08:07:01.127Z,66.21
2018-07-12T08:09:30.630Z,66.23
2018-07-12T08:12:00.149Z,66.22
2018-07-12T08:14:29.691Z,66.31
2018-07-12T08:16:59.073Z,65.82
2018-07-12T08:19:28.459Z,64.67
2018-07-12T08:22:09.450Z,63.75
2018-07-12T08:24:38.836Z,62.61
2018-07-12T08:27:08.243Z,62.33
2018-07-12T08:29:37.720Z,63.28
2018-07-12T08:32:07.164Z,63.15
2018-07-12T08:34:36.639Z,63.24
2018-07-12T08:37:06.325Z,63.77
2018-07-12T08:39:35.690Z,63.02
2018-07-12T08:42:05.320Z,62.96
2018-07-12T08:44:34.550Z,62.32
2018-07-12T08:47:03.650Z,62.65
2018-07-12T08:49:33.112Z,62.43
2018-07-12T08:52:02.282Z,61.45
2018-07-12T08:54:31.522Z,61.78
2018-07-12T08:57:00.623Z,61.83
2018-07-12T08:59:29.809Z,61.76
2018-07-12T09:01:58.919Z,61.08
2018-07-12T09:04:28.162Z,60.79
2018-07-12T09:06:57.305Z,58.96
2018-07-12T09:09:26.474Z,58.71
2018-07-12T09:11:55.634Z,58.80
2018-07-12T09:14:24.789Z,60.52
2018-07-12T09:16:53.951Z,60.19
2018-07-12T09:19:23.056Z,59.17
2018-07-12T09:21:52.418Z,57.67
2018-07-12T09:24:21.531Z,56.79
2018-07-12T09:26:50.741Z,55.26
2018-07-12T09:29:19.972Z,52.30
2018-07-12T09:31:49.025Z,46.63
2018-07-12T09:34:18.217Z,42.89
2018-07-12T09:36:47.311Z,40.59
2018-07-12T09:39:16.971Z,40.51
2018-07-12T09:41:46.183Z,44.18
2018-07-12T09:44:15.315Z,43.41
2018-07-12T09:46:44.616Z,41.79
2018-07-12T09:49:15.980Z,42.77
2018-07-12T09:51:45.065Z,37.23
2018-07-12T09:54:14.173Z,33.71
2018-07-12T09:57:01.079Z,32.18
2018-07-12T09:59:30.230Z,35.70
2018-07-12T10:02:04.774Z,34.47
2018-07-12T10:04:33.995Z,34.42
2018-07-12T10:07:08.637Z,33.02
2018-07-12T10:09:42.983Z,34.59
2018-07-12T10:12:16.299Z,33.66
2018-07-12T10:14:55.982Z,34.12
2018-07-12T10:17:30.584Z,34.65
2018-07-12T10:19:59.807Z,40.40
2018-07-12T10:22:28.995Z,37.71
2018-07-12T10:24:58.091Z,38.43
2018-07-12T10:27:27.637Z,36.06
2018-07-12T10:29:56.817Z,34.46
2018-07-12T10:32:25.926Z,36.03
2018-07-12T10:34:55.068Z,37.56
2018-07-12T10:37:24.209Z,37.01
2018-07-12T10:39:54.160Z,38.28
2018-07-12T10:42:23.279Z,38.96
2018-07-12T10:44:52.464Z,38.15
2018-07-12T10:47:21.583Z,38.62
2018-07-12T10:49:50.716Z,38.78
2018-07-12T10:52:19.860Z,38.37
2018-07-12T10:54:49.015Z,35.71
2018-07-12T10:57:18.120Z,37.05
2018-07-12T10:59:47.339Z,37.76
2018-07-12T11:02:16.492Z,37.25
2018-07-12T11:04:45.599Z,37.69
2018-07-12T11:07:14.730Z,37.25
2018-07-12T11:09:43.974Z,35.85
2018-07-12T11:12:13.092Z,35.82
2018-07-12T11:14:42.709Z,35.92
2018-07-12T11:17:12.107Z,36.24
2018-07-12T11:19:41.246Z,36.87
2018-07-12T11:22:10.431Z,37.52
2018-07-12T11:24:39.554Z,37.27
2018-07-12T11:27:08.705Z,37.64
2018-07-12T11:29:55.688Z,37.17
2018-07-12T11:32:24.807Z,35.86
2018-07-12T11:34:53.904Z,35.95
2018-07-12T11:37:26.391Z,35.17
2018-07-12T11:39:55.527Z,34.69
2018-07-12T11:42:24.685Z,35.68
2018-07-12T11:44:53.855Z,36.76
2018-07-12T11:47:22.960Z,38.37
2018-07-12T11:49:53.111Z,39.37
2018-07-12T11:52:22.243Z,40.40
2018-07-12T11:54:51.385Z,40.82
2018-07-12T11:57:20.515Z,40.37
2018-07-12T11:59:49.700Z,40.92
2018-07-12T12:02:18.825Z,39.54
2018-07-12T12:04:47.935Z,38.65
2018-07-12T12:07:17.093Z,38.54
2018-07-12T12:09:46.241Z,37.05
2018-07-12T12:12:15.681Z,35.54
2018-07-12T12:14:44.867Z,35.61
2018-07-12T12:17:14.047Z,36.21
2018-07-12T12:19:43.404Z,34.97
2018-07-12T12:22:12.578Z,34.56
2018-07-12T12:24:41.769Z,33.65
2018-07-12T12:27:10.930Z,34.38
2018-07-12T12:29:40.033Z,33.94
2018-07-12T12:32:09.173Z,34.47
2018-07-12T12:34:38.343Z,34.50
2018-07-12T12:37:07.530Z,34.32
2018-07-12T12:39:36.689Z,34.82
2018-07-12T12:42:06.099Z,34.84
2018-07-12T12:44:35.229Z,35.36
2018-07-12T12:47:04.332Z,35.56
2018-07-12T12:49:33.481Z,35.22
2018-07-12T12:52:02.613Z,34.56
2018-07-12T12:54:32.990Z,33.92
2018-07-12T12:57:02.184Z,33.12
2018-07-12T12:59:31.352Z,32.21
2018-07-12T13:02:00.479Z,32.33
2018-07-12T13:04:29.738Z,31.32
2018-07-12T13:06:59.357Z,32.23
2018-07-12T13:09:28.455Z,31.77
2018-07-12T13:11:57.621Z,31.26
2018-07-12T13:14:26.791Z,29.73
2018-07-12T13:16:55.894Z,29.68
2018-07-12T13:19:25.110Z,29.37
2018-07-12T13:21:54.242Z,30.47
2018-07-12T13:24:23.355Z,30.08
2018-07-12T13:26:52.495Z,31.95
2018-07-12T13:29:21.611Z,33.13
2018-07-12T13:31:50.736Z,33.83
2018-07-12T13:34:19.892Z,33.95
2018-07-12T13:36:49.022Z,34.35
2018-07-12T13:39:18.196Z,34.17
2018-07-12T13:41:47.326Z,34.97
2018-07-12T13:44:23.444Z,34.95
2018-07-12T13:46:53.629Z,35.20
2018-07-12T13:49:22.821Z,35.43
2018-07-12T13:51:52.971Z,35.69
2018-07-12T13:54:22.136Z,35.72
2018-07-12T13:56:51.404Z,35.89
2018-07-12T13:59:20.632Z,35.81
2018-07-12T14:01:49.746Z,34.23
2018-07-12T14:04:18.835Z,33.92
2018-07-12T14:06:47.996Z,34.82
2018-07-12T14:09:17.512Z,34.60
2018-07-12T14:11:47.390Z,34.75
2018-07-12T14:14:16.527Z,34.12
2018-07-12T14:16:45.717Z,34.51
2018-07-12T14:19:14.958Z,34.67
2018-07-12T14:21:44.112Z,34.30
2018-07-12T14:24:13.265Z,33.27
2018-07-12T14:26:42.420Z,33.30
2018-07-12T14:29:11.656Z,33.70
2018-07-12T14:31:40.794Z,35.12
2018-07-12T14:34:09.949Z,35.45
2018-07-12T14:36:39.076Z,36.25
2018-07-12T14:39:09.304Z,36.33
2018-07-12T14:41:38.264Z,36.87
2018-07-12T14:44:07.408Z,36.30
2018-07-12T14:46:36.615Z,36.68
2018-07-12T14:49:06.035Z,36.68
2018-07-12T14:51:35.171Z,35.79
2018-07-12T14:54:04.345Z,36.20
2018-07-12T14:56:33.524Z,35.37
2018-07-12T14:59:02.857Z,35.31
2018-07-12T15:01:32.048Z,35.28
2018-07-12T15:04:01.151Z,34.87
2018-07-12T15:06:30.308Z,33.92
2018-07-12T15:08:59.542Z,33.01
2018-07-12T15:11:28.648Z,33.39
2018-07-12T15:14:04.168Z,34.28
2018-07-12T15:16:33.301Z,34.44
2018-07-12T15:19:02.745Z,34.66
2018-07-12T15:21:31.852Z,34.54
2018-07-12T15:24:01.019Z,34.33
2018-07-12T15:26:30.159Z,34.74
2018-07-12T15:28:59.324Z,34.16
2018-07-12T15:31:28.525Z,34.35
2018-07-12T15:33:57.624Z,34.80
2018-07-12T15:36:26.769Z,34.19
2018-07-12T15:38:55.913Z,33.83
2018-07-12T15:41:25.078Z,33.88
2018-07-12T15:43:54.672Z,34.96
2018-07-12T15:46:23.781Z,34.93
2018-07-12T15:48:53.024Z,34.95
2018-07-12T15:51:22.130Z,34.84
2018-07-12T15:53:51.280Z,35.52
2018-07-12T15:56:20.469Z,35.50
2018-07-12T15:58:49.775Z,35.46
2018-07-12T16:01:18.981Z,36.27
2018-07-12T16:03:48.157Z,36.11
2018-07-12T16:06:17.337Z,37.16
2018-07-12T16:08:46.613Z,36.81
2018-07-12T16:11:15.783Z,37.05
2018-07-12T16:13:44.953Z,37.49
2018-07-12T16:16:14.058Z,37.88
2018-07-12T16:18:43.278Z,37.58
2018-07-12T16:21:12.513Z,38.04
2018-07-12T16:23:41.698Z,38.19
2018-07-12T16:26:11.153Z,38.19
2018-07-12T16:28:40.466Z,38.96
2018-07-12T16:31:09.584Z,38.81
2018-07-12T16:33:38.778Z,38.54
2018-07-12T16:36:07.905Z,38.67
2018-07-12T16:38:37.049Z,39.11
2018-07-12T16:41:06.214Z,39.00
2018-07-12T16:43:35.413Z,38.86
2018-07-12T16:46:04.592Z,38.50
2018-07-12T16:48:33.753Z,38.32
2018-07-12T16:51:02.930Z,38.21
2018-07-12T16:53:32.099Z,38.12
2018-07-12T16:56:01.307Z,38.15
2018-07-12T16:58:30.509Z,39.20
2018-07-12T17:00:59.620Z,45.65
2018-07-12T17:03:28.818Z,55.25
2018-07-12T17:05:58.205Z,59.42
2018-07-12T17:08:27.328Z,61.65
2018-07-12T17:10:56.459Z,62.07
2018-07-12T17:13:25.559Z,61.23
2018-07-12T17:15:54.721Z,61.86
2018-07-12T17:18:23.877Z,61.84
2018-07-12T17:20:52.991Z,61.44
2018-07-12T17:23:22.063Z,62.06
2018-07-12T17:25:51.163Z,61.59
2018-07-12T17:28:20.270Z,60.52
2018-07-12T17:30:49.428Z,59.73
2018-07-12T17:33:18.561Z,59.66
2018-07-12T17:35:47.790Z,60.74
2018-07-12T17:38:16.914Z,59.37
2018-07-12T17:40:46.073Z,58.56
2018-07-12T17:43:15.189Z,58.37
2018-07-12T17:45:44.294Z,58.09
2018-07-12T17:48:13.465Z,57.73
2018-07-12T17:50:42.577Z,58.05
2018-07-12T17:53:11.689Z,58.01
2018-07-12T17:55:40.834Z,58.77
2018-07-12T17:58:09.959Z,59.52
2018-07-12T18:00:39.068Z,58.98
2018-07-12T18:03:08.224Z,57.55
2018-07-12T18:05:37.370Z,57.01
2018-07-12T18:08:06.479Z,57.25
2018-07-12T18:10:35.603Z,57.52
2018-07-12T18:13:04.785Z,57.68
2018-07-12T18:15:33.972Z,59.00
2018-07-12T18:18:03.151Z,59.87
2018-07-12T18:20:32.275Z,60.83
2018-07-12T18:23:01.391Z,60.58
2018-07-12T18:25:30.497Z,60.77
2018-07-12T18:27:59.613Z,60.03
2018-07-12T18:30:28.790Z,59.97
2018-07-12T18:32:57.998Z,59.69
2018-07-12T18:35:27.260Z,58.75
2018-07-12T18:37:56.590Z,57.91
2018-07-12T18:40:25.897Z,56.33
2018-07-12T18:42:55.033Z,55.10
2018-07-12T18:45:24.169Z,55.69
2018-07-12T18:47:53.312Z,56.89
2018-07-12T18:50:22.436Z,57.30
2018-07-12T18:52:51.545Z,57.30
2018-07-12T18:55:20.685Z,58.00
2018-07-12T18:57:49.836Z,58.29
2018-07-12T19:00:18.947Z,59.14
2018-07-12T19:02:48.094Z,60.29
2018-07-12T19:05:17.197Z,59.35
2018-07-12T19:07:46.337Z,59.57
2018-07-12T19:10:15.508Z,59.66
2018-07-12T19:12:44.752Z,59.46
2018-07-12T19:15:14.050Z,59.57
2018-07-12T19:17:43.029Z,58.83
2018-07-12T19:20:11.992Z,59.17
2018-07-12T19:22:41.130Z,59.97
2018-07-12T19:25:10.246Z,60.48
2018-07-12T19:27:39.385Z,60.80
2018-07-12T19:30:08.624Z,60.62
2018-07-12T19:32:37.798Z,60.73
2018-07-12T19:35:07.086Z,60.55
2018-07-12T19:37:36.129Z,60.30
2018-07-12T19:40:05.397Z,60.38
2018-07-12T19:42:34.521Z,60.68
2018-07-12T19:45:03.663Z,60.83
2018-07-12T19:47:32.824Z,60.51
2018-07-12T19:50:01.972Z,60.45
2018-07-12T19:52:31.096Z,60.11
2018-07-12T19:55:00.243Z,59.87
2018-07-12T19:57:29.451Z,60.30
2018-07-12T19:59:58.572Z,59.78
2018-07-12T20:02:27.686Z,59.92
2018-07-12T20:04:56.856Z,59.71
2018-07-12T20:07:25.995Z,59.83
2018-07-12T20:09:55.156Z,60.22
2018-07-12T20:12:24.374Z,61.77
2018-07-12T20:14:53.541Z,62.72
2018-07-12T20:17:22.735Z,62.65
2018-07-12T20:19:51.854Z,62.81
2018-07-12T20:22:21.026Z,63.01
2018-07-12T20:24:50.178Z,62.75
2018-07-12T20:27:19.327Z,63.66
2018-07-12T20:29:48.483Z,63.92
2018-07-12T20:32:20.377Z,63.99
2018-07-12T20:34:49.554Z,63.54
2018-07-12T20:37:18.726Z,63.73
2018-07-12T20:39:47.911Z,63.20
2018-07-12T20:42:17.052Z,62.93
2018-07-12T20:44:46.252Z,62.94
2018-07-12T20:47:15.367Z,63.12
2018-07-12T20:49:44.507Z,63.72
2018-07-12T20:52:13.623Z,63.04
2018-07-12T20:54:42.766Z,63.18
2018-07-12T20:57:11.913Z,62.11
2018-07-12T20:59:41.040Z,61.54
2018-07-12T21:02:10.178Z,61.34
2018-07-12T21:04:39.310Z,61.85
2018-07-12T21:07:08.456Z,61.23
2018-07-12T21:09:37.623Z,61.26
2018-07-12T21:12:06.811Z,61.57
2018-07-12T21:14:36.022Z,61.25
2018-07-12T21:17:05.135Z,61.21
2018-07-12T21:19:34.282Z,61.01
2018-07-12T21:22:03.437Z,61.43
2018-07-12T21:24:32.605Z,61.21
2018-07-12T21:27:01.702Z,61.53
2018-07-12T21:29:30.900Z,61.61
2018-07-12T21:32:00.236Z,61.75
2018-07-12T21:34:29.382Z,61.76
2018-07-12T21:36:58.544Z,61.41
2018-07-12T21:39:27.690Z,61.65
2018-07-12T21:41:56.932Z,61.27
2018-07-12T21:44:26.152Z,61.68
2018-07-12T21:46:55.222Z,61.17
2018-07-12T21:49:24.195Z,61.28
2018-07-12T21:51:53.360Z,61.37
2018-07-12T21:54:22.519Z,61.19
2018-07-12T21:56:51.662Z,61.59
2018-07-12T21:59:20.780Z,61.84
2018-07-12T22:01:49.982Z,61.93
2018-07-12T22:04:19.088Z,61.72
2018-07-12T22:08:23.014Z,62.08
2018-07-12T22:10:53.385Z,62.38
2018-07-12T22:13:23.153Z,62.67
2018-07-12T22:15:52.271Z,62.75
2018-07-12T22:18:21.511Z,63.05
2018-07-12T22:20:50.662Z,63.34
2018-07-12T22:23:19.768Z,63.30
2018-07-12T22:25:48.928Z,63.76
2018-07-12T22:28:18.048Z,63.66
2018-07-12T22:30:47.166Z,63.81
2018-07-12T22:33:17.044Z,63.94
2018-07-12T22:35:46.359Z,64.29
2018-07-12T22:38:15.454Z,64.28
2018-07-12T22:40:44.648Z,64.20
2018-07-12T22:43:13.824Z,64.51
2018-07-12T22:45:42.976Z,64.77
2018-07-12T22:48:12.230Z,64.85
2018-07-12T22:50:41.369Z,64.99
2018-07-12T22:53:10.639Z,64.85
2018-07-12T22:55:39.763Z,65.02
2018-07-12T22:58:08.905Z,65.37
2018-07-12T23:00:37.838Z,65.61
2018-07-12T23:03:06.976Z,65.51
2018-07-12T23:05:36.120Z,65.82
2018-07-12T23:08:05.336Z,65.90
2018-07-12T23:10:34.702Z,66.43
2018-07-12T23:13:04.037Z,66.55
2018-07-12T23:15:33.253Z,66.62
2018-07-12T23:18:02.541Z,66.47
2018-07-12T23:20:31.732Z,66.48
2018-07-12T23:23:01.104Z,66.79
2018-07-12T23:25:30.729Z,66.78
2018-07-12T23:27:59.934Z,66.95
2018-07-12T23:30:29.588Z,67.02
2018-07-12T23:32:58.847Z,67.34
2018-07-12T23:35:27.998Z,67.12
2018-07-12T23:37:57.127Z,67.28
2018-07-12T23:40:27.783Z,66.92
2018-07-12T23:42:57.011Z,67.31
2018-07-12T23:45:26.310Z,67.36
2018-07-12T23:47:55.398Z,67.31
2018-07-12T23:50:24.575Z,67.50
2018-07-12T23:52:54.137Z,67.49
2018-07-12T23:55:23.248Z,67.85
2018-07-12T23:57:52.384Z,67.82
